Terminal Aerodrome Forecast
Issued by NWS

Home | Current Version | Previous Version | Graphics & Text | Print | Product List | Glossary On
Versions: 1 2 3 4 5 6 7 8 9 10 11 12 13 14 15 16 17 18 19 20 21
310
FTUS43 KICT 101557 AAA
TAFHUT
TAF AMD
KHUT 101557Z 1016/1112 21012KT P6SM SKC
     FM101700 25013KT P6SM SKC
     FM102100 30016G24KT P6SM SKC
     FM110000 32009KT P6SM SKC
     FM110900 36013KT P6SM SCT015=

USA.gov is the U.S. government's official web portal to all federal, state and local government web resources and services.